sensor_id;sensor_type;location;lat;lon;timestamp;temperature;humidity
1347;DHT22;667;48.796;9.480;2024-01-30T00:01:42;4.80;73.10
1347;DHT22;667;48.796;9.480;2024-01-30T00:04:07;4.80;72.80
1347;DHT22;667;48.796;9.480;2024-01-30T00:06:33;4.80;72.80
1347;DHT22;667;48.796;9.480;2024-01-30T00:08:58;4.80;73.00
1347;DHT22;667;48.796;9.480;2024-01-30T00:11:24;4.80;72.90
1347;DHT22;667;48.796;9.480;2024-01-30T00:13:51;4.80;72.80
1347;DHT22;667;48.796;9.480;2024-01-30T00:16:23;4.80;72.70
1347;DHT22;667;48.796;9.480;2024-01-30T00:18:52;4.80;72.70
1347;DHT22;667;48.796;9.480;2024-01-30T00:21:18;4.80;72.70
1347;DHT22;667;48.796;9.480;2024-01-30T00:23:44;4.70;72.60
1347;DHT22;667;48.796;9.480;2024-01-30T00:26:10;4.70;72.80
1347;DHT22;667;48.796;9.480;2024-01-30T00:28:37;4.70;72.90
1347;DHT22;667;48.796;9.480;2024-01-30T00:31:02;4.70;73.00
1347;DHT22;667;48.796;9.480;2024-01-30T00:33:28;4.70;73.00
1347;DHT22;667;48.796;9.480;2024-01-30T00:35:53;4.70;73.10
1347;DHT22;667;48.796;9.480;2024-01-30T00:38:19;4.70;73.20
1347;DHT22;667;48.796;9.480;2024-01-30T00:40:45;4.70;73.20
1347;DHT22;667;48.796;9.480;2024-01-30T00:43:10;4.60;73.20
1347;DHT22;667;48.796;9.480;2024-01-30T00:45:36;4.60;73.30
1347;DHT22;667;48.796;9.480;2024-01-30T00:48:01;4.60;74.20
1347;DHT22;667;48.796;9.480;2024-01-30T00:50:27;4.60;73.50
1347;DHT22;667;48.796;9.480;2024-01-30T00:52:52;4.60;73.50
1347;DHT22;667;48.796;9.480;2024-01-30T00:55:18;4.60;73.50
1347;DHT22;667;48.796;9.480;2024-01-30T00:57:43;4.60;73.60
1347;DHT22;667;48.796;9.480;2024-01-30T01:00:09;4.60;73.60
1347;DHT22;667;48.796;9.480;2024-01-30T01:02:35;4.60;73.60
1347;DHT22;667;48.796;9.480;2024-01-30T01:05:01;4.60;73.60
1347;DHT22;667;48.796;9.480;2024-01-30T01:07:27;4.60;73.60
1347;DHT22;667;48.796;9.480;2024-01-30T01:09:52;4.60;73.60
1347;DHT22;667;48.796;9.480;2024-01-30T01:12:18;4.60;73.60
1347;DHT22;667;48.796;9.480;2024-01-30T01:14:44;4.60;73.50
1347;DHT22;667;48.796;9.480;2024-01-30T01:17:09;4.60;73.50
1347;DHT22;667;48.796;9.480;2024-01-30T01:19:35;4.60;73.50
1347;DHT22;667;48.796;9.480;2024-01-30T01:22:00;4.60;73.50
1347;DHT22;667;48.796;9.480;2024-01-30T01:24:26;4.60;73.50
1347;DHT22;667;48.796;9.480;2024-01-30T01:26:51;4.60;73.60
1347;DHT22;667;48.796;9.480;2024-01-30T01:29:17;4.60;73.50
1347;DHT22;667;48.796;9.480;2024-01-30T01:31:42;4.60;73.50
1347;DHT22;667;48.796;9.480;2024-01-30T01:34:12;4.60;73.50
1347;DHT22;667;48.796;9.480;2024-01-30T01:36:38;4.50;73.40
1347;DHT22;667;48.796;9.480;2024-01-30T01:39:04;4.50;73.50
1347;DHT22;667;48.796;9.480;2024-01-30T01:41:31;4.50;73.60
1347;DHT22;667;48.796;9.480;2024-01-30T01:43:57;4.50;73.70
1347;DHT22;667;48.796;9.480;2024-01-30T01:46:23;4.50;73.70
1347;DHT22;667;48.796;9.480;2024-01-30T01:48:49;4.50;73.60
1347;DHT22;667;48.796;9.480;2024-01-30T01:51:15;4.50;73.50
1347;DHT22;667;48.796;9.480;2024-01-30T01:53:41;4.50;73.50
1347;DHT22;667;48.796;9.480;2024-01-30T01:56:07;4.50;73.70
1347;DHT22;667;48.796;9.480;2024-01-30T01:58:32;4.50;73.70
1347;DHT22;667;48.796;9.480;2024-01-30T02:00:59;4.50;73.70
1347;DHT22;667;48.796;9.480;2024-01-30T02:03:24;4.50;73.70
1347;DHT22;667;48.796;9.480;2024-01-30T02:05:53;4.50;73.70
1347;DHT22;667;48.796;9.480;2024-01-30T02:08:20;4.50;73.70
1347;DHT22;667;48.796;9.480;2024-01-30T02:10:45;4.50;73.70
1347;DHT22;667;48.796;9.480;2024-01-30T02:13:11;4.50;73.70
1347;DHT22;667;48.796;9.480;2024-01-30T02:15:36;4.50;73.70
1347;DHT22;667;48.796;9.480;2024-01-30T02:18:02;4.50;73.70
1347;DHT22;667;48.796;9.480;2024-01-30T02:20:30;4.50;73.70
1347;DHT22;667;48.796;9.480;2024-01-30T02:22:58;4.50;73.70
1347;DHT22;667;48.796;9.480;2024-01-30T02:25:38;4.40;73.60
1347;DHT22;667;48.796;9.480;2024-01-30T02:28:04;4.50;73.70
1347;DHT22;667;48.796;9.480;2024-01-30T02:30:29;4.40;73.60
1347;DHT22;667;48.796;9.480;2024-01-30T02:32:55;4.40;73.60
1347;DHT22;667;48.796;9.480;2024-01-30T02:35:21;4.40;73.70
1347;DHT22;667;48.796;9.480;2024-01-30T02:37:46;4.40;73.70
1347;DHT22;667;48.796;9.480;2024-01-30T02:40:12;4.40;73.70
1347;DHT22;667;48.796;9.480;2024-01-30T02:42:37;4.40;73.60
1347;DHT22;667;48.796;9.480;2024-01-30T02:45:03;4.40;73.60
1347;DHT22;667;48.796;9.480;2024-01-30T02:47:29;4.40;73.50
1347;DHT22;667;48.796;9.480;2024-01-30T02:49:54;4.40;73.50
1347;DHT22;667;48.796;9.480;2024-01-30T02:52:20;4.40;73.60
1347;DHT22;667;48.796;9.480;2024-01-30T02:54:46;4.40;73.50
1347;DHT22;667;48.796;9.480;2024-01-30T02:57:11;4.40;73.60
1347;DHT22;667;48.796;9.480;2024-01-30T02:59:37;4.40;73.50
1347;DHT22;667;48.796;9.480;2024-01-30T03:02:02;4.30;73.40
1347;DHT22;667;48.796;9.480;2024-01-30T03:04:28;4.30;73.40
1347;DHT22;667;48.796;9.480;2024-01-30T03:06:55;4.30;73.40
1347;DHT22;667;48.796;9.480;2024-01-30T03:09:20;4.30;73.50
1347;DHT22;667;48.796;9.480;2024-01-30T03:11:46;4.30;73.50
1347;DHT22;667;48.796;9.480;2024-01-30T03:14:11;4.30;73.70
1347;DHT22;667;48.796;9.480;2024-01-30T03:16:37;4.20;73.80
1347;DHT22;667;48.796;9.480;2024-01-30T03:19:05;4.20;73.90
1347;DHT22;667;48.796;9.480;2024-01-30T03:21:30;4.20;74.00
1347;DHT22;667;48.796;9.480;2024-01-30T03:23:56;4.20;74.10
1347;DHT22;667;48.796;9.480;2024-01-30T03:26:21;4.30;74.30
1347;DHT22;667;48.796;9.480;2024-01-30T03:28:47;4.20;74.00
1347;DHT22;667;48.796;9.480;2024-01-30T03:31:15;4.30;74.00
1347;DHT22;667;48.796;9.480;2024-01-30T03:33:41;4.30;74.00
1347;DHT22;667;48.796;9.480;2024-01-30T03:36:07;4.20;74.00
1347;DHT22;667;48.796;9.480;2024-01-30T03:38:33;4.20;74.00
1347;DHT22;667;48.796;9.480;2024-01-30T03:40:59;4.20;73.90
1347;DHT22;667;48.796;9.480;2024-01-30T03:43:25;4.20;73.90
1347;DHT22;667;48.796;9.480;2024-01-30T03:45:50;4.20;74.00
1347;DHT22;667;48.796;9.480;2024-01-30T03:48:16;4.20;74.00
1347;DHT22;667;48.796;9.480;2024-01-30T03:50:41;4.20;73.90
1347;DHT22;667;48.796;9.480;2024-01-30T03:53:07;4.20;73.80
1347;DHT22;667;48.796;9.480;2024-01-30T03:55:32;4.10;73.80
1347;DHT22;667;48.796;9.480;2024-01-30T03:57:58;4.10;73.70
1347;DHT22;667;48.796;9.480;2024-01-30T04:00:23;4.10;73.80
1347;DHT22;667;48.796;9.480;2024-01-30T04:02:49;4.10;73.80
1347;DHT22;667;48.796;9.480;2024-01-30T04:05:16;4.10;73.90
1347;DHT22;667;48.796;9.480;2024-01-30T04:07:42;4.10;73.90
1347;DHT22;667;48.796;9.480;2024-01-30T04:10:09;4.10;73.90
1347;DHT22;667;48.796;9.480;2024-01-30T04:12:35;4.10;74.00
1347;DHT22;667;48.796;9.480;2024-01-30T04:15:01;4.10;74.00
1347;DHT22;667;48.796;9.480;2024-01-30T04:17:27;4.10;73.90
1347;DHT22;667;48.796;9.480;2024-01-30T04:19:54;4.10;73.70
1347;DHT22;667;48.796;9.480;2024-01-30T04:22:20;4.10;73.70
1347;DHT22;667;48.796;9.480;2024-01-30T04:24:45;4.10;73.70
1347;DHT22;667;48.796;9.480;2024-01-30T04:27:11;4.00;73.70
1347;DHT22;667;48.796;9.480;2024-01-30T04:29:36;4.00;73.60
1347;DHT22;667;48.796;9.480;2024-01-30T04:32:02;4.00;73.50
1347;DHT22;667;48.796;9.480;2024-01-30T04:34:28;4.00;73.60
1347;DHT22;667;48.796;9.480;2024-01-30T04:36:53;4.00;73.50
1347;DHT22;667;48.796;9.480;2024-01-30T04:39:19;4.00;73.50
1347;DHT22;667;48.796;9.480;2024-01-30T04:41:44;4.00;73.40
1347;DHT22;667;48.796;9.480;2024-01-30T04:44:10;4.00;73.40
1347;DHT22;667;48.796;9.480;2024-01-30T04:46:35;3.90;73.30
1347;DHT22;667;48.796;9.480;2024-01-30T04:49:01;3.90;73.30
1347;DHT22;667;48.796;9.480;2024-01-30T04:51:26;3.90;73.40
1347;DHT22;667;48.796;9.480;2024-01-30T04:53:52;3.90;73.40
1347;DHT22;667;48.796;9.480;2024-01-30T04:56:18;3.90;73.40
1347;DHT22;667;48.796;9.480;2024-01-30T04:58:43;3.90;73.50
1347;DHT22;667;48.796;9.480;2024-01-30T05:01:09;3.90;73.60
1347;DHT22;667;48.796;9.480;2024-01-30T05:03:35;3.90;73.90
1347;DHT22;667;48.796;9.480;2024-01-30T05:06:01;3.90;73.90
1347;DHT22;667;48.796;9.480;2024-01-30T05:08:26;3.90;73.90
1347;DHT22;667;48.796;9.480;2024-01-30T05:10:52;3.90;73.90
1347;DHT22;667;48.796;9.480;2024-01-30T05:13:17;3.90;74.00
1347;DHT22;667;48.796;9.480;2024-01-30T05:15:43;3.90;74.10
1347;DHT22;667;48.796;9.480;2024-01-30T05:18:08;3.90;74.00
1347;DHT22;667;48.796;9.480;2024-01-30T05:20:34;3.90;73.90
1347;DHT22;667;48.796;9.480;2024-01-30T05:22:59;3.90;73.60
1347;DHT22;667;48.796;9.480;2024-01-30T05:25:25;3.80;73.50
1347;DHT22;667;48.796;9.480;2024-01-30T05:27:50;3.90;73.50
1347;DHT22;667;48.796;9.480;2024-01-30T05:30:16;3.80;73.40
1347;DHT22;667;48.796;9.480;2024-01-30T05:32:41;3.80;73.40
1347;DHT22;667;48.796;9.480;2024-01-30T05:35:07;3.80;73.50
1347;DHT22;667;48.796;9.480;2024-01-30T05:37:36;3.80;73.50
1347;DHT22;667;48.796;9.480;2024-01-30T05:40:01;3.80;73.50
1347;DHT22;667;48.796;9.480;2024-01-30T05:42:27;3.80;73.30
1347;DHT22;667;48.796;9.480;2024-01-30T05:44:52;3.80;73.30
1347;DHT22;667;48.796;9.480;2024-01-30T05:47:18;3.80;73.40
1347;DHT22;667;48.796;9.480;2024-01-30T05:49:43;3.80;73.40
1347;DHT22;667;48.796;9.480;2024-01-30T05:52:09;3.80;73.40
1347;DHT22;667;48.796;9.480;2024-01-30T05:54:35;3.80;73.40
1347;DHT22;667;48.796;9.480;2024-01-30T05:57:00;3.80;73.40
1347;DHT22;667;48.796;9.480;2024-01-30T05:59:26;3.70;73.40
1347;DHT22;667;48.796;9.480;2024-01-30T06:01:51;3.80;73.80
1347;DHT22;667;48.796;9.480;2024-01-30T06:04:17;3.80;73.70
1347;DHT22;667;48.796;9.480;2024-01-30T06:06:42;3.70;73.60
1347;DHT22;667;48.796;9.480;2024-01-30T06:09:08;3.70;73.60
1347;DHT22;667;48.796;9.480;2024-01-30T06:11:38;3.70;73.50
1347;DHT22;667;48.796;9.480;2024-01-30T06:14:03;3.70;73.50
1347;DHT22;667;48.796;9.480;2024-01-30T06:16:29;3.70;73.70
1347;DHT22;667;48.796;9.480;2024-01-30T06:18:55;3.70;73.70
1347;DHT22;667;48.796;9.480;2024-01-30T06:21:21;3.70;73.80
1347;DHT22;667;48.796;9.480;2024-01-30T06:23:46;3.70;73.90
1347;DHT22;667;48.796;9.480;2024-01-30T06:26:12;3.70;74.00
1347;DHT22;667;48.796;9.480;2024-01-30T06:28:37;3.70;74.10
1347;DHT22;667;48.796;9.480;2024-01-30T06:31:03;3.70;74.20
1347;DHT22;667;48.796;9.480;2024-01-30T06:33:29;3.70;74.20
1347;DHT22;667;48.796;9.480;2024-01-30T06:35:54;3.70;74.20
1347;DHT22;667;48.796;9.480;2024-01-30T06:38:20;3.70;74.30
1347;DHT22;667;48.796;9.480;2024-01-30T06:40:45;3.80;74.30
1347;DHT22;667;48.796;9.480;2024-01-30T06:43:11;3.80;74.10
1347;DHT22;667;48.796;9.480;2024-01-30T06:45:37;3.80;74.00
1347;DHT22;667;48.796;9.480;2024-01-30T06:48:03;3.80;74.00
1347;DHT22;667;48.796;9.480;2024-01-30T06:50:28;3.70;73.80
1347;DHT22;667;48.796;9.480;2024-01-30T06:52:54;3.70;73.80
1347;DHT22;667;48.796;9.480;2024-01-30T06:55:19;3.70;73.80
1347;DHT22;667;48.796;9.480;2024-01-30T06:57:45;3.70;74.00
1347;DHT22;667;48.796;9.480;2024-01-30T07:00:11;3.70;74.00
1347;DHT22;667;48.796;9.480;2024-01-30T07:02:36;3.70;74.10
1347;DHT22;667;48.796;9.480;2024-01-30T07:05:02;3.70;74.10
1347;DHT22;667;48.796;9.480;2024-01-30T07:07:28;3.70;73.90
1347;DHT22;667;48.796;9.480;2024-01-30T07:10:00;3.70;73.90
1347;DHT22;667;48.796;9.480;2024-01-30T07:12:26;3.70;74.00
1347;DHT22;667;48.796;9.480;2024-01-30T07:14:52;3.70;74.00
1347;DHT22;667;48.796;9.480;2024-01-30T07:17:18;3.70;74.10
1347;DHT22;667;48.796;9.480;2024-01-30T07:19:43;3.80;74.30
1347;DHT22;667;48.796;9.480;2024-01-30T07:22:09;3.70;74.20
1347;DHT22;667;48.796;9.480;2024-01-30T07:24:35;3.70;74.20
1347;DHT22;667;48.796;9.480;2024-01-30T07:27:00;3.70;74.10
1347;DHT22;667;48.796;9.480;2024-01-30T07:29:26;3.80;74.30
1347;DHT22;667;48.796;9.480;2024-01-30T07:31:51;3.80;75.00
1347;DHT22;667;48.796;9.480;2024-01-30T07:34:17;3.80;74.30
1347;DHT22;667;48.796;9.480;2024-01-30T07:36:43;3.80;74.30
1347;DHT22;667;48.796;9.480;2024-01-30T07:39:08;3.80;74.20
1347;DHT22;667;48.796;9.480;2024-01-30T07:41:35;3.80;74.30
1347;DHT22;667;48.796;9.480;2024-01-30T07:44:00;3.80;74.40
1347;DHT22;667;48.796;9.480;2024-01-30T07:46:26;3.90;74.50
1347;DHT22;667;48.796;9.480;2024-01-30T07:48:52;3.90;74.50
1347;DHT22;667;48.796;9.480;2024-01-30T07:51:17;3.90;74.50
1347;DHT22;667;48.796;9.480;2024-01-30T07:53:43;4.00;74.50
1347;DHT22;667;48.796;9.480;2024-01-30T07:56:08;4.00;74.60
1347;DHT22;667;48.796;9.480;2024-01-30T07:58:34;4.00;75.40
1347;DHT22;667;48.796;9.480;2024-01-30T08:00:59;4.00;74.70
1347;DHT22;667;48.796;9.480;2024-01-30T08:03:26;4.00;74.80
1347;DHT22;667;48.796;9.480;2024-01-30T08:05:51;4.00;75.00
1347;DHT22;667;48.796;9.480;2024-01-30T08:08:17;4.10;75.10
1347;DHT22;667;48.796;9.480;2024-01-30T08:10:42;4.10;75.10
1347;DHT22;667;48.796;9.480;2024-01-30T08:13:08;4.10;75.20
1347;DHT22;667;48.796;9.480;2024-01-30T08:15:34;4.20;75.30
1347;DHT22;667;48.796;9.480;2024-01-30T08:18:00;4.20;75.30
1347;DHT22;667;48.796;9.480;2024-01-30T08:20:25;4.30;75.40
1347;DHT22;667;48.796;9.480;2024-01-30T08:22:52;4.40;75.40
1347;DHT22;667;48.796;9.480;2024-01-30T08:25:17;4.50;75.40
1347;DHT22;667;48.796;9.480;2024-01-30T08:27:44;4.50;75.30
1347;DHT22;667;48.796;9.480;2024-01-30T08:30:10;4.50;75.20
1347;DHT22;667;48.796;9.480;2024-01-30T08:32:36;4.60;75.20
1347;DHT22;667;48.796;9.480;2024-01-30T08:35:01;4.70;75.20
1347;DHT22;667;48.796;9.480;2024-01-30T08:37:29;4.70;75.20
1347;DHT22;667;48.796;9.480;2024-01-30T08:39:55;4.80;75.50
1347;DHT22;667;48.796;9.480;2024-01-30T08:42:20;4.90;75.90
1347;DHT22;667;48.796;9.480;2024-01-30T08:44:48;5.00;76.80
1347;DHT22;667;48.796;9.480;2024-01-30T08:47:14;5.20;76.80
1347;DHT22;667;48.796;9.480;2024-01-30T08:49:41;5.50;76.80
1347;DHT22;667;48.796;9.480;2024-01-30T08:52:09;5.80;76.50
1347;DHT22;667;48.796;9.480;2024-01-30T08:54:35;6.10;75.30
1347;DHT22;667;48.796;9.480;2024-01-30T08:57:01;6.30;74.40
1347;DHT22;667;48.796;9.480;2024-01-30T08:59:26;6.70;73.90
1347;DHT22;667;48.796;9.480;2024-01-30T09:01:52;7.00;72.70
1347;DHT22;667;48.796;9.480;2024-01-30T09:04:20;7.30;72.00
1347;DHT22;667;48.796;9.480;2024-01-30T09:06:47;7.70;70.20
1347;DHT22;667;48.796;9.480;2024-01-30T09:09:13;8.10;69.80
1347;DHT22;667;48.796;9.480;2024-01-30T09:11:38;8.70;68.90
1347;DHT22;667;48.796;9.480;2024-01-30T09:14:04;9.20;66.70
1347;DHT22;667;48.796;9.480;2024-01-30T09:16:29;9.70;65.20
1347;DHT22;667;48.796;9.480;2024-01-30T09:18:55;10.10;61.80
1347;DHT22;667;48.796;9.480;2024-01-30T09:21:20;10.30;60.10
1347;DHT22;667;48.796;9.480;2024-01-30T09:23:46;10.50;59.10
1347;DHT22;667;48.796;9.480;2024-01-30T09:26:11;10.60;58.40
1347;DHT22;667;48.796;9.480;2024-01-30T09:28:38;10.70;58.20
1347;DHT22;667;48.796;9.480;2024-01-30T09:31:03;10.80;58.00
1347;DHT22;667;48.796;9.480;2024-01-30T09:33:29;10.80;57.60
1347;DHT22;667;48.796;9.480;2024-01-30T09:35:55;10.70;57.50
1347;DHT22;667;48.796;9.480;2024-01-30T09:38:20;10.50;57.70
1347;DHT22;667;48.796;9.480;2024-01-30T09:40:51;10.60;58.20
1347;DHT22;667;48.796;9.480;2024-01-30T09:43:23;11.00;58.10
1347;DHT22;667;48.796;9.480;2024-01-30T09:45:50;11.40;58.00
1347;DHT22;667;48.796;9.480;2024-01-30T09:48:16;12.10;57.60
1347;DHT22;667;48.796;9.480;2024-01-30T09:50:41;12.70;56.30
1347;DHT22;667;48.796;9.480;2024-01-30T09:53:11;13.10;54.50
1347;DHT22;667;48.796;9.480;2024-01-30T09:55:39;13.20;53.90
1347;DHT22;667;48.796;9.480;2024-01-30T09:58:08;13.30;53.80
1347;DHT22;667;48.796;9.480;2024-01-30T10:00:33;13.50;53.20
1347;DHT22;667;48.796;9.480;2024-01-30T10:02:59;13.50;52.80
1347;DHT22;667;48.796;9.480;2024-01-30T10:05:27;13.60;52.70
1347;DHT22;667;48.796;9.480;2024-01-30T10:07:54;13.50;52.70
1347;DHT22;667;48.796;9.480;2024-01-30T10:10:22;13.50;52.60
1347;DHT22;667;48.796;9.480;2024-01-30T10:12:49;13.60;52.70
1347;DHT22;667;48.796;9.480;2024-01-30T10:15:14;13.60;52.60
1347;DHT22;667;48.796;9.480;2024-01-30T10:17:40;13.80;52.60
1347;DHT22;667;48.796;9.480;2024-01-30T10:20:06;14.30;52.00
1347;DHT22;667;48.796;9.480;2024-01-30T10:22:33;14.40;51.50
1347;DHT22;667;48.796;9.480;2024-01-30T10:24:59;14.40;51.40
1347;DHT22;667;48.796;9.480;2024-01-30T10:27:28;14.20;51.30
1347;DHT22;667;48.796;9.480;2024-01-30T10:29:57;14.00;51.30
1347;DHT22;667;48.796;9.480;2024-01-30T10:32:23;13.70;51.70
1347;DHT22;667;48.796;9.480;2024-01-30T10:34:48;13.30;52.20
1347;DHT22;667;48.796;9.480;2024-01-30T10:37:15;13.10;52.80
1347;DHT22;667;48.796;9.480;2024-01-30T10:39:43;13.10;53.50
1347;DHT22;667;48.796;9.480;2024-01-30T10:42:13;13.00;53.50
1347;DHT22;667;48.796;9.480;2024-01-30T10:45:07;13.00;53.70
1347;DHT22;667;48.796;9.480;2024-01-30T10:47:39;13.10;53.70
1347;DHT22;667;48.796;9.480;2024-01-30T10:50:05;13.20;53.80
1347;DHT22;667;48.796;9.480;2024-01-30T10:52:33;13.20;53.90
1347;DHT22;667;48.796;9.480;2024-01-30T10:54:59;13.40;54.10
1347;DHT22;667;48.796;9.480;2024-01-30T10:57:28;13.60;54.00
1347;DHT22;667;48.796;9.480;2024-01-30T10:59:56;13.60;53.80
1347;DHT22;667;48.796;9.480;2024-01-30T11:02:23;13.60;53.90
1347;DHT22;667;48.796;9.480;2024-01-30T11:04:49;13.30;53.90
1347;DHT22;667;48.796;9.480;2024-01-30T11:07:19;12.90;54.30
1347;DHT22;667;48.796;9.480;2024-01-30T11:12:27;12.00;55.70
1347;DHT22;667;48.796;9.480;2024-01-30T11:15:06;11.60;56.30
1347;DHT22;667;48.796;9.480;2024-01-30T11:22:48;10.90;58.30
1347;DHT22;667;48.796;9.480;2024-01-30T11:25:18;10.80;58.60
1347;DHT22;667;48.796;9.480;2024-01-30T11:27:45;10.70;59.20
1347;DHT22;667;48.796;9.480;2024-01-30T11:33:14;10.50;59.90
1347;DHT22;667;48.796;9.480;2024-01-30T11:35:41;10.40;60.00
1347;DHT22;667;48.796;9.480;2024-01-30T11:38:08;10.40;60.10
1347;DHT22;667;48.796;9.480;2024-01-30T11:40:36;10.40;60.60
1347;DHT22;667;48.796;9.480;2024-01-30T11:43:03;10.30;60.90
1347;DHT22;667;48.796;9.480;2024-01-30T11:45:30;10.30;61.40
1347;DHT22;667;48.796;9.480;2024-01-30T11:47:56;10.30;61.70
1347;DHT22;667;48.796;9.480;2024-01-30T11:50:22;10.30;62.00
1347;DHT22;667;48.796;9.480;2024-01-30T11:52:48;10.20;62.20
1347;DHT22;667;48.796;9.480;2024-01-30T11:55:17;10.20;62.60
1347;DHT22;667;48.796;9.480;2024-01-30T11:57:44;10.20;62.90
1347;DHT22;667;48.796;9.480;2024-01-30T12:00:17;10.20;63.90
1347;DHT22;667;48.796;9.480;2024-01-30T12:02:44;10.20;63.50
1347;DHT22;667;48.796;9.480;2024-01-30T12:05:10;10.20;63.70
1347;DHT22;667;48.796;9.480;2024-01-30T12:07:36;10.20;64.00
1347;DHT22;667;48.796;9.480;2024-01-30T12:10:01;10.20;64.20
1347;DHT22;667;48.796;9.480;2024-01-30T12:12:28;10.20;64.20
1347;DHT22;667;48.796;9.480;2024-01-30T12:14:55;10.20;64.40
1347;DHT22;667;48.796;9.480;2024-01-30T12:17:39;10.20;64.50
1347;DHT22;667;48.796;9.480;2024-01-30T12:20:13;10.20;64.60
1347;DHT22;667;48.796;9.480;2024-01-30T12:22:44;10.20;64.70
1347;DHT22;667;48.796;9.480;2024-01-30T12:25:17;10.20;64.70
1347;DHT22;667;48.796;9.480;2024-01-30T12:27:45;10.30;64.90
1347;DHT22;667;48.796;9.480;2024-01-30T12:30:12;10.30;64.90
1347;DHT22;667;48.796;9.480;2024-01-30T12:32:42;10.30;64.80
1347;DHT22;667;48.796;9.480;2024-01-30T12:35:12;10.30;64.60
1347;DHT22;667;48.796;9.480;2024-01-30T12:37:39;10.30;64.10
1347;DHT22;667;48.796;9.480;2024-01-30T12:40:05;10.40;64.10
1347;DHT22;667;48.796;9.480;2024-01-30T12:42:35;10.40;64.00
1347;DHT22;667;48.796;9.480;2024-01-30T12:45:02;10.40;63.70
1347;DHT22;667;48.796;9.480;2024-01-30T12:47:28;10.50;64.50
1347;DHT22;667;48.796;9.480;2024-01-30T12:49:54;10.50;63.80
1347;DHT22;667;48.796;9.480;2024-01-30T12:52:20;10.50;63.90
1347;DHT22;667;48.796;9.480;2024-01-30T12:54:47;10.60;63.90
1347;DHT22;667;48.796;9.480;2024-01-30T12:57:13;10.60;63.90
1347;DHT22;667;48.796;9.480;2024-01-30T12:59:38;10.60;63.80
1347;DHT22;667;48.796;9.480;2024-01-30T13:02:05;10.70;63.80
1347;DHT22;667;48.796;9.480;2024-01-30T13:04:30;10.70;63.70
1347;DHT22;667;48.796;9.480;2024-01-30T13:06:57;10.70;63.70
1347;DHT22;667;48.796;9.480;2024-01-30T13:09:23;10.70;63.60
1347;DHT22;667;48.796;9.480;2024-01-30T13:11:49;10.80;63.50
1347;DHT22;667;48.796;9.480;2024-01-30T13:14:15;10.80;63.60
1347;DHT22;667;48.796;9.480;2024-01-30T13:16:40;10.80;63.80
1347;DHT22;667;48.796;9.480;2024-01-30T13:19:06;10.90;63.80
1347;DHT22;667;48.796;9.480;2024-01-30T13:21:32;10.90;63.50
1347;DHT22;667;48.796;9.480;2024-01-30T13:23:57;10.90;63.20
1347;DHT22;667;48.796;9.480;2024-01-30T13:26:23;10.90;63.20
1347;DHT22;667;48.796;9.480;2024-01-30T13:28:48;11.00;63.40
1347;DHT22;667;48.796;9.480;2024-01-30T13:31:14;11.00;63.30
1347;DHT22;667;48.796;9.480;2024-01-30T13:33:41;11.00;63.30
1347;DHT22;667;48.796;9.480;2024-01-30T13:36:10;11.10;63.30
1347;DHT22;667;48.796;9.480;2024-01-30T13:38:36;11.10;64.00
1347;DHT22;667;48.796;9.480;2024-01-30T13:41:02;11.10;63.30
1347;DHT22;667;48.796;9.480;2024-01-30T13:43:28;11.20;63.40
1347;DHT22;667;48.796;9.480;2024-01-30T13:45:54;11.20;63.20
1347;DHT22;667;48.796;9.480;2024-01-30T13:48:19;11.30;63.10
1347;DHT22;667;48.796;9.480;2024-01-30T13:50:45;11.30;62.90
1347;DHT22;667;48.796;9.480;2024-01-30T13:53:11;11.40;62.80
1347;DHT22;667;48.796;9.480;2024-01-30T13:55:37;11.30;62.60
1347;DHT22;667;48.796;9.480;2024-01-30T13:58:04;11.40;62.40
1347;DHT22;667;48.796;9.480;2024-01-30T14:00:30;11.40;62.40
1347;DHT22;667;48.796;9.480;2024-01-30T14:02:56;11.40;62.50
1347;DHT22;667;48.796;9.480;2024-01-30T14:05:23;11.50;62.90
1347;DHT22;667;48.796;9.480;2024-01-30T14:07:49;11.50;63.00
1347;DHT22;667;48.796;9.480;2024-01-30T14:10:15;11.50;63.00
1347;DHT22;667;48.796;9.480;2024-01-30T14:12:42;11.50;62.90
1347;DHT22;667;48.796;9.480;2024-01-30T14:15:09;11.60;62.70
1347;DHT22;667;48.796;9.480;2024-01-30T14:17:38;11.50;63.00
1347;DHT22;667;48.796;9.480;2024-01-30T14:20:04;11.60;63.10
1347;DHT22;667;48.796;9.480;2024-01-30T14:22:30;11.60;63.20
1347;DHT22;667;48.796;9.480;2024-01-30T14:24:56;11.60;63.40
1347;DHT22;667;48.796;9.480;2024-01-30T14:27:22;11.60;63.60
1347;DHT22;667;48.796;9.480;2024-01-30T14:29:47;11.60;63.90
1347;DHT22;667;48.796;9.480;2024-01-30T14:32:13;11.60;65.00
1347;DHT22;667;48.796;9.480;2024-01-30T14:34:38;11.60;64.60
1347;DHT22;667;48.796;9.480;2024-01-30T14:37:04;11.60;65.10
1347;DHT22;667;48.796;9.480;2024-01-30T14:39:30;11.60;65.50
1347;DHT22;667;48.796;9.480;2024-01-30T14:41:55;11.50;65.90
1347;DHT22;667;48.796;9.480;2024-01-30T14:44:21;11.50;66.50
1347;DHT22;667;48.796;9.480;2024-01-30T14:46:47;11.50;66.90
1347;DHT22;667;48.796;9.480;2024-01-30T14:49:12;11.50;67.80
1347;DHT22;667;48.796;9.480;2024-01-30T14:51:38;11.50;67.80
1347;DHT22;667;48.796;9.480;2024-01-30T14:54:03;11.50;68.30
1347;DHT22;667;48.796;9.480;2024-01-30T14:56:29;11.40;68.60
1347;DHT22;667;48.796;9.480;2024-01-30T14:58:55;11.40;69.00
1347;DHT22;667;48.796;9.480;2024-01-30T15:01:21;11.40;69.30
1347;DHT22;667;48.796;9.480;2024-01-30T15:03:47;11.30;69.70
1347;DHT22;667;48.796;9.480;2024-01-30T15:06:12;11.30;70.20
1347;DHT22;667;48.796;9.480;2024-01-30T15:08:38;11.30;70.90
1347;DHT22;667;48.796;9.480;2024-01-30T15:11:04;11.20;71.50
1347;DHT22;667;48.796;9.480;2024-01-30T15:13:30;11.20;72.10
1347;DHT22;667;48.796;9.480;2024-01-30T15:15:56;11.20;72.40
1347;DHT22;667;48.796;9.480;2024-01-30T15:18:21;11.10;73.30
1347;DHT22;667;48.796;9.480;2024-01-30T15:20:47;11.10;72.70
1347;DHT22;667;48.796;9.480;2024-01-30T15:23:12;11.10;72.80
1347;DHT22;667;48.796;9.480;2024-01-30T15:25:39;11.00;73.00
1347;DHT22;667;48.796;9.480;2024-01-30T15:28:05;11.00;73.30
1347;DHT22;667;48.796;9.480;2024-01-30T15:30:31;11.00;73.50
1347;DHT22;667;48.796;9.480;2024-01-30T15:32:56;10.90;73.60
1347;DHT22;667;48.796;9.480;2024-01-30T15:35:22;10.90;73.90
1347;DHT22;667;48.796;9.480;2024-01-30T15:37:47;10.90;74.20
1347;DHT22;667;48.796;9.480;2024-01-30T15:40:13;10.80;74.20
1347;DHT22;667;48.796;9.480;2024-01-30T15:42:39;10.80;74.40
1347;DHT22;667;48.796;9.480;2024-01-30T15:45:04;10.70;74.40
1347;DHT22;667;48.796;9.480;2024-01-30T15:47:30;10.70;74.60
1347;DHT22;667;48.796;9.480;2024-01-30T15:49:57;10.70;74.60
1347;DHT22;667;48.796;9.480;2024-01-30T15:52:22;10.60;74.50
1347;DHT22;667;48.796;9.480;2024-01-30T15:54:48;10.60;74.50
1347;DHT22;667;48.796;9.480;2024-01-30T15:57:14;10.50;74.60
1347;DHT22;667;48.796;9.480;2024-01-30T15:59:42;10.50;74.70
1347;DHT22;667;48.796;9.480;2024-01-30T16:02:07;10.50;74.70
1347;DHT22;667;48.796;9.480;2024-01-30T16:04:33;10.40;74.70
1347;DHT22;667;48.796;9.480;2024-01-30T16:06:58;10.40;74.70
1347;DHT22;667;48.796;9.480;2024-01-30T16:09:24;10.40;74.70
1347;DHT22;667;48.796;9.480;2024-01-30T16:11:49;10.30;74.60
1347;DHT22;667;48.796;9.480;2024-01-30T16:14:15;10.30;74.60
1347;DHT22;667;48.796;9.480;2024-01-30T16:16:41;10.30;74.60
1347;DHT22;667;48.796;9.480;2024-01-30T16:19:06;10.20;74.70
1347;DHT22;667;48.796;9.480;2024-01-30T16:21:32;10.20;74.70
1347;DHT22;667;48.796;9.480;2024-01-30T16:23:58;10.20;74.70
1347;DHT22;667;48.796;9.480;2024-01-30T16:26:24;10.10;74.60
1347;DHT22;667;48.796;9.480;2024-01-30T16:28:50;10.10;74.60
1347;DHT22;667;48.796;9.480;2024-01-30T16:31:16;10.00;74.60